createdAt,value
2022-11-12T00:03:12.587Z,7.47
2022-11-12T00:06:33.522Z,7.55
2022-11-12T00:09:54.618Z,7.54
2022-11-12T00:13:15.765Z,7.51
2022-11-12T00:16:36.490Z,7.51
2022-11-12T00:19:57.075Z,7.48
2022-11-12T00:23:17.836Z,7.42
2022-11-12T00:26:39.264Z,7.51
2022-11-12T00:30:00.405Z,7.51
2022-11-12T00:33:21.549Z,7.58
2022-11-12T00:36:42.472Z,7.55
2022-11-12T00:40:04.586Z,7.55
2022-11-12T00:43:25.700Z,7.62
2022-11-12T00:46:46.526Z,7.48
2022-11-12T00:50:07.802Z,7.59
2022-11-12T00:53:28.985Z,7.47
2022-11-12T00:56:50.293Z,7.49
2022-11-12T01:00:15.986Z,7.47
2022-11-12T01:03:37.999Z,7.59
2022-11-12T01:06:58.991Z,7.64
2022-11-12T01:10:20.401Z,7.58
2022-11-12T01:13:44.751Z,7.50
2022-11-12T01:17:05.854Z,7.54
2022-11-12T01:20:28.829Z,7.60
2022-11-12T01:23:49.875Z,7.62
2022-11-12T01:27:11.342Z,7.76
2022-11-12T01:30:32.403Z,7.80
2022-11-12T01:33:56.501Z,7.80
2022-11-12T01:37:17.458Z,7.77
2022-11-12T01:40:38.592Z,7.86
2022-11-12T01:44:20.389Z,7.86
2022-11-12T01:47:44.591Z,7.80
2022-11-12T01:51:07.618Z,7.80
2022-11-12T01:54:28.560Z,7.68
2022-11-12T01:57:53.129Z,7.82
2022-11-12T02:01:13.979Z,7.70
2022-11-12T02:04:38.399Z,7.70
2022-11-12T02:08:01.225Z,7.65
2022-11-12T02:11:25.643Z,7.70
2022-11-12T02:14:47.243Z,7.58
2022-11-12T02:18:09.021Z,7.40
2022-11-12T02:21:30.629Z,7.42
2022-11-12T02:24:51.536Z,7.38
2022-11-12T02:28:13.018Z,7.31
2022-11-12T02:31:35.863Z,7.19
2022-11-12T02:34:57.041Z,7.20
2022-11-12T02:38:17.930Z,7.18
2022-11-12T02:41:38.663Z,7.42
2022-11-12T02:44:59.568Z,7.49
2022-11-12T02:48:20.324Z,7.27
2022-11-12T02:51:41.090Z,7.21
2022-11-12T02:55:02.111Z,7.17
2022-11-12T02:58:23.811Z,7.11
2022-11-12T03:01:44.961Z,7.13
2022-11-12T03:05:06.062Z,7.10
2022-11-12T03:08:27.812Z,7.05
2022-11-12T03:11:48.950Z,7.13
2022-11-12T03:15:10.223Z,7.08
2022-11-12T03:18:31.361Z,6.90
2022-11-12T03:21:52.515Z,6.94
2022-11-12T03:25:13.463Z,6.99
2022-11-12T03:28:34.852Z,7.07
2022-11-12T03:31:55.742Z,7.11
2022-11-12T03:35:16.548Z,7.01
2022-11-12T03:38:37.659Z,6.99
2022-11-12T03:41:58.737Z,7.13
2022-11-12T03:45:21.750Z,7.26
2022-11-12T03:48:42.837Z,7.37
2022-11-12T03:52:03.731Z,7.41
2022-11-12T03:55:26.873Z,7.47
2022-11-12T03:58:48.042Z,7.44
2022-11-12T04:02:14.429Z,7.33
2022-11-12T04:05:54.319Z,7.32
2022-11-12T04:09:15.275Z,7.21
2022-11-12T04:12:54.801Z,7.27
2022-11-12T04:16:40.045Z,7.24
2022-11-12T04:20:19.925Z,7.15
2022-11-12T04:23:40.943Z,7.11
2022-11-12T04:27:01.937Z,6.84
2022-11-12T04:30:23.470Z,6.88
2022-11-12T04:33:44.575Z,6.77
2022-11-12T04:37:06.199Z,6.81
2022-11-12T04:40:46.055Z,6.68
2022-11-12T04:44:25.652Z,6.76
2022-11-12T04:47:46.976Z,6.67
2022-11-12T04:51:27.806Z,6.61
2022-11-12T04:54:49.157Z,6.63
2022-11-12T04:58:09.967Z,6.58
2022-11-12T05:01:31.346Z,6.53
2022-11-12T05:04:52.204Z,6.52
2022-11-12T05:08:13.014Z,6.56
2022-11-12T05:11:33.666Z,6.42
2022-11-12T05:14:54.541Z,6.28
2022-11-12T05:18:16.241Z,6.20
2022-11-12T05:21:55.701Z,6.25
2022-11-12T05:25:18.445Z,6.33
2022-11-12T05:28:39.322Z,6.28
2022-11-12T05:32:00.456Z,6.33
2022-11-12T05:35:21.726Z,6.47
2022-11-12T05:38:42.964Z,6.36
2022-11-12T05:42:12.875Z,6.32
2022-11-12T05:45:34.460Z,6.36
2022-11-12T05:48:55.466Z,6.50
2022-11-12T05:52:16.608Z,6.51
2022-11-12T05:55:37.447Z,6.52
2022-11-12T05:58:58.655Z,6.57
2022-11-12T06:02:19.865Z,6.61
2022-11-12T06:05:41.066Z,6.65
2022-11-12T06:09:02.310Z,6.78
2022-11-12T06:12:23.291Z,6.95
2022-11-12T06:15:44.463Z,6.97
2022-11-12T06:19:05.632Z,7.02
2022-11-12T06:22:26.500Z,7.07
2022-11-12T06:25:47.259Z,7.33
2022-11-12T06:29:08.938Z,7.48
2022-11-12T06:32:30.138Z,7.58
2022-11-12T06:36:03.123Z,7.74
2022-11-12T06:39:24.262Z,7.87
2022-11-12T06:42:45.079Z,7.96
2022-11-12T06:46:12.895Z,7.86
2022-11-12T06:49:34.294Z,8.11
2022-11-12T06:52:59.340Z,8.29
2022-11-12T06:56:20.156Z,8.27
2022-11-12T06:59:40.987Z,8.46
2022-11-12T07:03:06.702Z,8.57
2022-11-12T07:06:28.314Z,8.71
2022-11-12T07:09:49.443Z,8.70
2022-11-12T07:13:10.254Z,8.63
2022-11-12T07:16:31.151Z,8.77
2022-11-12T07:19:52.285Z,8.42
2022-11-12T07:23:13.254Z,8.68
2022-11-12T07:26:34.129Z,8.55
2022-11-12T07:29:54.996Z,8.90
2022-11-12T07:33:16.052Z,9.05
2022-11-12T07:36:37.058Z,9.14
2022-11-12T07:39:58.006Z,9.24
2022-11-12T07:43:19.003Z,9.40
2022-11-12T07:46:40.020Z,9.30
2022-11-12T07:50:01.514Z,9.63
2022-11-12T07:53:22.258Z,9.74
2022-11-12T07:56:43.038Z,9.41
2022-11-12T08:00:04.323Z,9.57
2022-11-12T08:03:25.578Z,9.66
2022-11-12T08:06:47.857Z,9.52
2022-11-12T08:10:09.867Z,9.56
2022-11-12T08:13:31.353Z,10.00
2022-11-12T08:16:52.237Z,9.96
2022-11-12T08:20:13.529Z,10.44
2022-11-12T08:23:34.296Z,10.55
2022-11-12T08:26:55.245Z,10.47
2022-11-12T08:30:18.438Z,10.77
2022-11-12T08:33:40.257Z,10.98
2022-11-12T08:37:01.550Z,10.25
2022-11-12T08:40:23.593Z,10.07
2022-11-12T08:43:44.514Z,10.68
2022-11-12T08:47:05.613Z,10.38
2022-11-12T08:50:27.816Z,10.62
2022-11-12T08:53:49.052Z,10.03
2022-11-12T08:57:09.973Z,10.15
2022-11-12T09:00:33.958Z,9.86
2022-11-12T09:03:55.066Z,10.20
2022-11-12T09:07:43.257Z,11.02
2022-11-12T09:10:58.453Z,11.06
2022-11-12T09:14:19.604Z,10.82
2022-11-12T09:17:40.710Z,11.37
2022-11-12T09:21:08.595Z,11.55
2022-11-12T09:24:29.407Z,11.63
2022-11-12T09:27:50.103Z,11.47
2022-11-12T09:31:11.124Z,11.59
2022-11-12T09:34:31.977Z,11.23
2022-11-12T09:37:53.569Z,11.84
2022-11-12T09:41:34.737Z,12.12
2022-11-12T09:45:02.846Z,12.91
2022-11-12T09:48:31.077Z,13.50
2022-11-12T09:52:24.954Z,12.92
2022-11-12T09:55:50.184Z,13.58
2022-11-12T09:59:13.552Z,13.23
2022-11-12T10:03:03.217Z,13.59
2022-11-12T10:06:32.255Z,14.02
2022-11-12T10:10:15.853Z,15.45
2022-11-12T10:13:42.478Z,15.76
2022-11-12T10:17:16.382Z,15.62
2022-11-12T10:20:46.948Z,14.47
2022-11-12T10:24:10.383Z,14.28
2022-11-12T10:27:42.535Z,15.28
2022-11-12T10:31:12.670Z,16.12
2022-11-12T10:34:34.140Z,17.00
2022-11-12T10:38:01.662Z,17.31
2022-11-12T10:41:24.465Z,16.14
2022-11-12T10:44:46.496Z,16.31
2022-11-12T10:48:27.322Z,15.76
2022-11-12T10:51:57.727Z,16.34
2022-11-12T10:55:21.667Z,17.78
2022-11-12T10:58:42.605Z,18.37
2022-11-12T11:02:03.626Z,18.10
2022-11-12T11:05:48.594Z,16.86
2022-11-12T11:09:12.294Z,16.74
2022-11-12T11:12:34.685Z,17.09
2022-11-12T11:16:04.394Z,17.18
2022-11-12T11:19:35.607Z,16.75
2022-11-12T11:22:59.905Z,17.07
2022-11-12T11:26:58.847Z,17.43
2022-11-12T11:30:21.070Z,18.91
2022-11-12T11:33:46.856Z,18.03
2022-11-12T11:37:22.261Z,18.87
2022-11-12T11:40:55.621Z,17.95
2022-11-12T11:44:57.740Z,18.43
2022-11-12T11:48:53.408Z,18.08
2022-11-12T11:52:33.164Z,17.00
2022-11-12T11:56:13.222Z,15.38
2022-11-12T11:59:38.897Z,15.60
2022-11-12T12:03:24.487Z,15.52
2022-11-12T12:07:05.490Z,15.65
2022-11-12T12:11:06.269Z,15.90
2022-11-12T12:14:26.203Z,15.93
2022-11-12T12:18:20.839Z,15.89
2022-11-12T12:21:49.549Z,15.59
2022-11-12T12:25:32.387Z,15.58
2022-11-12T12:28:56.808Z,14.89
2022-11-12T12:32:27.377Z,14.55
2022-11-12T12:35:56.177Z,15.02
2022-11-12T12:39:32.302Z,15.09
2022-11-12T12:43:01.269Z,15.26
2022-11-12T12:46:25.588Z,15.62
2022-11-12T12:49:50.860Z,15.11
2022-11-12T12:53:14.773Z,14.83
2022-11-12T12:56:35.935Z,14.64
2022-11-12T13:00:31.622Z,14.57
2022-11-12T13:04:04.649Z,14.78
2022-11-12T13:07:47.582Z,15.00
2022-11-12T13:11:09.011Z,14.48
2022-11-12T13:14:35.976Z,14.51
2022-11-12T13:17:57.120Z,14.53
2022-11-12T13:21:22.277Z,14.47
2022-11-12T13:25:02.123Z,14.30
2022-11-12T13:28:23.440Z,14.33
2022-11-12T13:31:45.005Z,14.38
2022-11-12T13:35:11.915Z,14.11
2022-11-12T13:38:38.020Z,13.99
2022-11-12T13:42:18.132Z,14.18
2022-11-12T13:45:50.223Z,14.34
2022-11-12T13:49:14.914Z,14.19
2022-11-12T13:52:36.731Z,13.95
2022-11-12T13:55:58.176Z,13.61
2022-11-12T13:59:26.454Z,13.64
2022-11-12T14:03:01.146Z,14.03
2022-11-12T14:06:32.295Z,14.00
2022-11-12T14:10:05.270Z,13.87
2022-11-12T14:14:10.749Z,13.67
2022-11-12T14:17:48.118Z,13.65
2022-11-12T14:21:27.370Z,13.67
2022-11-12T14:24:59.526Z,13.52
2022-11-12T14:28:36.609Z,13.71
2022-11-12T14:32:02.856Z,13.45
2022-11-12T14:35:34.268Z,13.75
2022-11-12T14:38:57.781Z,13.73
2022-11-12T14:42:18.705Z,13.29
2022-11-12T14:45:48.639Z,12.85
2022-11-12T14:49:40.630Z,12.76
2022-11-12T14:53:20.539Z,13.01
2022-11-12T14:56:48.826Z,13.04
2022-11-12T15:00:37.641Z,13.15
2022-11-12T15:04:17.832Z,13.20
2022-11-12T15:07:55.098Z,13.04
2022-11-12T15:11:21.683Z,12.99
2022-11-12T15:14:43.332Z,12.99
2022-11-12T15:18:16.983Z,12.77
2022-11-12T15:21:46.658Z,12.68
2022-11-12T15:25:29.479Z,12.73
2022-11-12T15:29:01.779Z,12.77
2022-11-12T15:32:22.576Z,12.63
2022-11-12T15:35:45.231Z,12.61
2022-11-12T15:39:13.555Z,12.59
2022-11-12T15:42:38.501Z,12.60
2022-11-12T15:45:59.765Z,12.42
2022-11-12T15:49:20.727Z,12.57
2022-11-12T15:52:42.132Z,12.31
2022-11-12T15:56:04.663Z,12.51
2022-11-12T15:59:25.563Z,12.54
2022-11-12T16:02:51.871Z,12.51
2022-11-12T16:06:13.002Z,12.31
2022-11-12T16:09:34.479Z,12.23
2022-11-12T16:12:58.955Z,12.29
2022-11-12T16:16:20.096Z,12.42
2022-11-12T16:19:42.065Z,12.38
2022-11-12T16:23:03.251Z,12.30
2022-11-12T16:26:28.852Z,12.20
2022-11-12T16:29:50.056Z,12.20
2022-11-12T16:33:13.378Z,12.25
2022-11-12T16:36:34.349Z,12.01
2022-11-12T16:39:55.562Z,11.98
2022-11-12T16:43:16.736Z,11.75
2022-11-12T16:46:42.313Z,11.56
2022-11-12T16:50:03.104Z,11.49
2022-11-12T16:53:24.236Z,11.76
2022-11-12T16:56:45.576Z,11.64
2022-11-12T17:00:07.969Z,11.61
2022-11-12T17:03:29.214Z,11.64
2022-11-12T17:06:50.817Z,11.63
2022-11-12T17:10:13.283Z,11.57
2022-11-12T17:13:34.386Z,11.41
2022-11-12T17:16:56.145Z,11.51
2022-11-12T17:20:19.033Z,11.66
2022-11-12T17:23:40.347Z,11.56
2022-11-12T17:27:03.984Z,11.43
2022-11-12T17:30:25.347Z,11.52
2022-11-12T17:33:49.633Z,11.51
2022-11-12T17:37:10.830Z,11.57
2022-11-12T17:40:31.559Z,11.38
2022-11-12T17:44:00.239Z,11.43
2022-11-12T17:47:21.309Z,11.48
2022-11-12T17:50:42.456Z,11.38
2022-11-12T17:54:06.357Z,11.30
2022-11-12T17:57:27.620Z,11.34
2022-11-12T18:00:49.083Z,11.24
2022-11-12T18:04:10.691Z,11.17
2022-11-12T18:07:31.578Z,11.27
2022-11-12T18:10:53.040Z,11.20
2022-11-12T18:14:15.123Z,11.14
2022-11-12T18:17:36.959Z,11.06
2022-11-12T18:20:58.281Z,11.08
2022-11-12T18:24:19.670Z,11.29
2022-11-12T18:27:40.834Z,11.26
2022-11-12T18:31:03.937Z,11.07
2022-11-12T18:34:25.193Z,11.34
2022-11-12T18:37:46.426Z,11.34
2022-11-12T18:41:12.844Z,11.33
2022-11-12T18:44:33.920Z,11.18
2022-11-12T18:47:55.291Z,11.18
2022-11-12T18:51:18.849Z,11.10
2022-11-12T18:54:39.985Z,11.17
2022-11-12T18:58:01.457Z,11.25
2022-11-12T19:01:24.422Z,11.09
2022-11-12T19:04:45.821Z,11.20
2022-11-12T19:08:06.969Z,11.04
2022-11-12T19:11:28.485Z,11.12
2022-11-12T19:14:49.597Z,11.15
2022-11-12T19:18:11.094Z,11.25
2022-11-12T19:21:32.250Z,11.26
2022-11-12T19:24:53.549Z,11.15
2022-11-12T19:28:15.014Z,11.19
2022-11-12T19:31:35.966Z,11.16
2022-11-12T19:34:57.062Z,10.94
2022-11-12T19:38:18.290Z,10.94
2022-11-12T19:41:39.325Z,11.22
2022-11-12T19:45:00.218Z,10.98
2022-11-12T19:48:21.292Z,10.91
2022-11-12T19:51:42.723Z,10.89
2022-11-12T19:55:03.899Z,10.87
2022-11-12T19:58:25.717Z,10.99
2022-11-12T20:01:47.379Z,10.86
2022-11-12T20:05:09.032Z,10.89
2022-11-12T20:08:30.258Z,11.02
2022-11-12T20:11:51.367Z,10.91
2022-11-12T20:15:12.694Z,11.22
2022-11-12T20:18:34.333Z,11.11
2022-11-12T20:21:55.916Z,11.16
2022-11-12T20:25:17.391Z,11.21
2022-11-12T20:28:40.434Z,11.19
2022-11-12T20:32:02.434Z,11.09
2022-11-12T20:35:23.945Z,11.11
2022-11-12T20:38:45.362Z,11.00
2022-11-12T20:42:06.520Z,11.12
2022-11-12T20:45:27.944Z,11.00
2022-11-12T20:48:49.137Z,10.94
2022-11-12T20:52:10.144Z,10.72
2022-11-12T20:55:32.681Z,10.60
2022-11-12T20:58:53.845Z,10.51
2022-11-12T21:02:18.196Z,10.48
2022-11-12T21:05:39.455Z,10.34
2022-11-12T21:09:01.628Z,10.28
2022-11-12T21:12:23.126Z,10.17
2022-11-12T21:15:47.639Z,10.19
2022-11-12T21:19:09.092Z,10.03
2022-11-12T21:22:32.039Z,10.00
2022-11-12T21:25:53.119Z,9.91
2022-11-12T21:29:18.666Z,10.08
2022-11-12T21:32:40.115Z,9.99
2022-11-12T21:36:01.763Z,10.08
2022-11-12T21:39:22.875Z,10.06
2022-11-12T21:42:45.153Z,10.02
2022-11-12T21:46:29.657Z,9.81
2022-11-12T21:49:50.997Z,9.85
2022-11-12T21:53:11.656Z,9.74
2022-11-12T21:56:34.288Z,9.69
2022-11-12T22:00:00.285Z,9.40
2022-11-12T22:03:35.812Z,9.50
2022-11-12T22:06:56.659Z,9.50
2022-11-12T22:10:17.962Z,9.52
2022-11-12T22:13:39.232Z,9.45
2022-11-12T22:17:00.366Z,9.39
2022-11-12T22:20:21.868Z,9.10
2022-11-12T22:23:43.259Z,8.99
2022-11-12T22:27:05.755Z,8.98
2022-11-12T22:30:26.636Z,9.02
2022-11-12T22:33:47.576Z,8.97
2022-11-12T22:37:10.889Z,9.02
2022-11-12T22:40:31.747Z,9.01
2022-11-12T22:43:55.407Z,8.98
2022-11-12T22:47:16.538Z,8.93
2022-11-12T22:50:37.629Z,9.04
2022-11-12T22:54:01.051Z,8.98
2022-11-12T22:57:22.129Z,8.92
2022-11-12T23:00:43.648Z,8.87
2022-11-12T23:04:06.547Z,8.85
2022-11-12T23:07:27.705Z,8.78
2022-11-12T23:10:48.745Z,8.80
2022-11-12T23:14:09.905Z,8.82
2022-11-12T23:17:30.812Z,8.79
2022-11-12T23:20:52.305Z,8.82
2022-11-12T23:24:13.330Z,8.98
2022-11-12T23:27:34.556Z,8.74
2022-11-12T23:30:56.230Z,8.14
2022-11-12T23:34:20.040Z,8.12
2022-11-12T23:37:41.137Z,8.25
2022-11-12T23:41:03.236Z,8.31
2022-11-12T23:44:24.679Z,8.24
2022-11-12T23:47:45.611Z,8.21
2022-11-12T23:51:10.701Z,8.44
2022-11-12T23:54:31.763Z,8.39
2022-11-12T23:57:53.490Z,8.48
